Wetterdaten: Woche 24.07.17 - 30.07.17 (KW30)
Datum Zeit Temp. A. Pool Temp. Feuchte A. Luftdruck Regen Wind Richtung Sonnenschein ET UV Solar Taupunkt Windchill Windben Empfang
24.07.2017 00:00 18,4 C 25,6 C 92 % 1013,8 hPa 0,0 l/m 4,6 km/h (1 Bft) W-SW 0,00 h 0,000 mm 0,0 UV-I 0 W/m 17,1 C 18,2 C 10,1 km/h (2 Bft) 95,92 %
24.07.2017 01:00 17,2 C 25,6 C 91 % 1013,3 hPa 0,0 l/m 1,5 km/h (1 Bft) N 0,00 h 0,000 mm 0,0 UV-I 0 W/m 15,7 C 17,2 C 4,2 km/h (1 Bft) 97,09 %
24.07.2017 02:00 16,9 C 25,6 C 91 % 1012,8 hPa 0,0 l/m 1,1 km/h (0 Bft) W-SW 0,00 h 0,000 mm 0,0 UV-I 0 W/m 15,4 C 16,9 C 2,5 km/h (1 Bft) 97,18 %
24.07.2017 03:00 16,5 C 25,3 C 93 % 1012,4 hPa 5,2 l/m 2,3 km/h (1 Bft) S-SW 0,00 h 0,000 mm 0,0 UV-I 0 W/m 15,4 C 16,5 C 4,5 km/h (1 Bft) 98,23 %
24.07.2017 04:00 16,1 C 25,0 C 95 % 1011,7 hPa 0,2 l/m 3,2 km/h (1 Bft) O-SO 0,00 h 0,000 mm 0,0 UV-I 0 W/m 15,3 C 16,1 C 5,1 km/h (1 Bft) 95,87 %
24.07.2017 05:00 16,2 C 25,0 C 96 % 1010,8 hPa 0,0 l/m 1,6 km/h (1 Bft) O-SO 0,00 h 0,000 mm 0,0 UV-I 5 W/m 15,5 C 16,2 C 3,4 km/h (1 Bft) 97,31 %
24.07.2017 06:00 16,3 C 25,0 C 96 % 1010,2 hPa 1,2 l/m 1,4 km/h (1 Bft) W-NW 0,00 h 0,000 mm 0,0 UV-I 13 W/m 15,7 C 16,3 C 3,1 km/h (1 Bft) 97,00 %
24.07.2017 07:00 16,1 C 25,0 C 96 % 1009,4 hPa 2,2 l/m 2,7 km/h (1 Bft) N-NO 0,00 h 0,000 mm 0,0 UV-I 22 W/m 15,5 C 16,1 C 5,2 km/h (1 Bft) 97,54 %
24.07.2017 08:00 15,9 C 24,7 C 96 % 1008,6 hPa 2,4 l/m 1,7 km/h (1 Bft) NO 0,00 h 0,025 mm 0,0 UV-I 35 W/m 15,3 C 15,9 C 4,1 km/h (1 Bft) 94,78 %
24.07.2017 09:00 15,8 C 24,4 C 96 % 1007,9 hPa 1,6 l/m 4,2 km/h (1 Bft) N-NO 0,00 h 0,026 mm 0,0 UV-I 47 W/m 15,2 C 15,8 C 7,7 km/h (2 Bft) 97,16 %
24.07.2017 10:00 15,7 C 24,4 C 97 % 1007,2 hPa 6,8 l/m 3,7 km/h (1 Bft) NO 0,00 h 0,025 mm 0,0 UV-I 30 W/m 15,2 C 15,7 C 5,9 km/h (2 Bft) 96,02 %
24.07.2017 11:00 15,7 C 24,3 C 97 % 1006,8 hPa 11,6 l/m 2,4 km/h (1 Bft) W-SW 0,00 h 0,026 mm 0,5 UV-I 50 W/m 15,2 C 15,7 C 4,9 km/h (1 Bft) 96,72 %
24.07.2017 12:00 16,2 C 23,9 C 97 % 1006,3 hPa 2,0 l/m 3,5 km/h (1 Bft) SW 0,00 h 0,025 mm 0,7 UV-I 91 W/m 15,7 C 16,2 C 5,8 km/h (2 Bft) 95,16 %
24.07.2017 13:00 16,6 C 23,9 C 96 % 1005,9 hPa 1,2 l/m 3,4 km/h (1 Bft) W-SW 0,00 h 0,051 mm 1,3 UV-I 176 W/m 15,9 C 16,5 C 6,5 km/h (2 Bft) 96,97 %
24.07.2017 14:00 16,9 C 23,9 C 95 % 1005,6 hPa 0,4 l/m 5,0 km/h (1 Bft) W-SW 0,00 h 0,101 mm 1,9 UV-I 263 W/m 16,1 C 16,8 C 9,1 km/h (2 Bft) 97,56 %
24.07.2017 15:00 17,3 C 23,9 C 93 % 1005,5 hPa 0,0 l/m 5,9 km/h (2 Bft) W-SW 0,00 h 0,153 mm 1,4 UV-I 195 W/m 16,2 C 17,2 C 10,5 km/h (2 Bft) 98,17 %
24.07.2017 16:00 17,7 C 23,9 C 91 % 1005,7 hPa 0,2 l/m 11,2 km/h (2 Bft) W-SW 0,00 h 0,101 mm 0,9 UV-I 142 W/m 16,3 C 15,7 C 17,5 km/h (3 Bft) 95,35 %
24.07.2017 17:00 16,9 C 23,9 C 94 % 1006,0 hPa 3,4 l/m 12,1 km/h (2 Bft) W-SW 0,00 h 0,102 mm 0,6 UV-I 86 W/m 15,9 C 14,5 C 19,6 km/h (3 Bft) 96,53 %
24.07.2017 18:00 16,6 C 23,9 C 95 % 1006,2 hPa 2,2 l/m 13,2 km/h (3 Bft) W-SW 0,00 h 0,051 mm 0,5 UV-I 74 W/m 15,7 C 13,8 C 20,4 km/h (4 Bft) 97,81 %
24.07.2017 19:00 15,4 C 23,9 C 94 % 1007,3 hPa 2,0 l/m 15,4 km/h (3 Bft) W-SW 0,00 h 0,051 mm 0,0 UV-I 26 W/m 14,3 C 11,6 C 24,0 km/h (4 Bft) 98,04 %
24.07.2017 20:00 14,7 C 23,5 C 93 % 1007,8 hPa 0,2 l/m 14,5 km/h (3 Bft) SW 0,03 h 0,025 mm 0,0 UV-I 10 W/m 13,6 C 11,0 C 22,2 km/h (4 Bft) 94,34 %
24.07.2017 21:00 14,4 C 23,3 C 91 % 1008,2 hPa 0,0 l/m 14,1 km/h (3 Bft) SW 0,00 h 0,025 mm 0,0 UV-I 0 W/m 13,0 C 10,8 C 21,0 km/h (4 Bft) 97,27 %
24.07.2017 22:00 14,3 C 23,3 C 90 % 1007,9 hPa 0,0 l/m 11,9 km/h (2 Bft) W-SW 0,00 h 0,026 mm 0,0 UV-I 0 W/m 12,7 C 11,6 C 17,8 km/h (3 Bft) 96,80 %
24.07.2017 23:00 14,2 C 23,2 C 90 % 1007,7 hPa 0,2 l/m 12,4 km/h (3 Bft) SW 0,00 h 0,025 mm 0,0 UV-I 0 W/m 12,6 C 11,3 C 19,0 km/h (3 Bft) 98,40 %
25.07.2017 00:00 13,8 C 22,8 C 92 % 1007,9 hPa 0,6 l/m 14,9 km/h (3 Bft) W-SW 0,00 h 0,000 mm 0,0 UV-I 0 W/m 12,5 C 9,8 C 22,4 km/h (4 Bft) 95,19 %
25.07.2017 01:00 13,6 C 22,8 C 92 % 1007,9 hPa 0,0 l/m 14,6 km/h (3 Bft) SW 0,00 h 0,025 mm 0,0 UV-I 0 W/m 12,3 C 9,7 C 21,7 km/h (4 Bft) 97,27 %
25.07.2017 02:00 12,9 C 22,8 C 90 % 1007,9 hPa 0,0 l/m 10,9 km/h (2 Bft) SW 0,00 h 0,026 mm 0,0 UV-I 0 W/m 11,4 C 10,5 C 17,4 km/h (3 Bft) 96,77 %
25.07.2017 03:00 12,5 C 22,2 C 91 % 1007,5 hPa 0,0 l/m 11,7 km/h (2 Bft) SW 0,00 h 0,025 mm 0,0 UV-I 0 W/m 11,1 C 9,6 C 17,6 km/h (3 Bft) 97,54 %
25.07.2017 04:00 12,3 C 22,2 C 91 % 1007,0 hPa 0,0 l/m 10,2 km/h (2 Bft) W-SW 0,00 h 0,026 mm 0,0 UV-I 0 W/m 10,9 C 10,1 C 15,6 km/h (3 Bft) 94,82 %
25.07.2017 05:00 12,7 C 22,2 C 90 % 1006,9 hPa 0,0 l/m 11,4 km/h (2 Bft) W-SW 0,00 h 0,025 mm 0,0 UV-I 8 W/m 11,2 C 10,0 C 17,9 km/h (3 Bft) 98,60 %
25.07.2017 06:00 13,0 C 22,0 C 89 % 1006,9 hPa 0,0 l/m 11,2 km/h (2 Bft) W-SW 0,10 h 0,025 mm 0,0 UV-I 42 W/m 11,2 C 10,4 C 17,6 km/h (3 Bft) 96,58 %
25.07.2017 07:00 13,2 C 21,7 C 88 % 1007,1 hPa 0,0 l/m 6,6 km/h (2 Bft) SW 0,00 h 0,026 mm 0,0 UV-I 54 W/m 11,4 C 12,7 C 10,4 km/h (2 Bft) 97,53 %
25.07.2017 08:00 14,0 C 21,7 C 86 % 1006,8 hPa 0,0 l/m 9,6 km/h (2 Bft) W-SW 0,03 h 0,025 mm 0,3 UV-I 111 W/m 11,7 C 12,1 C 16,0 km/h (3 Bft) 95,54 %
25.07.2017 09:00 14,8 C 21,7 C 82 % 1006,4 hPa 0,0 l/m 13,8 km/h (3 Bft) W-SW 0,00 h 0,076 mm 0,8 UV-I 169 W/m 11,7 C 11,4 C 21,4 km/h (4 Bft) 98,98 %
25.07.2017 10:00 15,6 C 21,8 C 76 % 1006,3 hPa 0,0 l/m 17,3 km/h (3 Bft) W-SW 0,00 h 0,127 mm 1,3 UV-I 226 W/m 11,3 C 11,3 C 27,5 km/h (4 Bft) 98,10 %
25.07.2017 11:00 16,7 C 22,2 C 71 % 1006,4 hPa 0,0 l/m 18,4 km/h (3 Bft) W-SW 0,27 h 0,178 mm 2,6 UV-I 420 W/m 11,5 C 12,4 C 28,5 km/h (4 Bft) 97,49 %
25.07.2017 12:00 17,5 C 21,8 C 67 % 1006,3 hPa 0,0 l/m 18,8 km/h (3 Bft) W-SW 0,37 h 0,305 mm 3,2 UV-I 475 W/m 11,3 C 13,4 C 28,7 km/h (4 Bft) 95,75 %
25.07.2017 13:00 17,6 C 21,7 C 67 % 1006,3 hPa 0,0 l/m 21,5 km/h (4 Bft) SW 0,40 h 0,356 mm 3,8 UV-I 570 W/m 11,5 C 12,9 C 32,7 km/h (5 Bft) 98,90 %
25.07.2017 14:00 17,5 C 21,7 C 69 % 1006,2 hPa 0,0 l/m 19,3 km/h (3 Bft) W-SW 0,03 h 0,406 mm 1,8 UV-I 259 W/m 11,6 C 13,3 C 29,6 km/h (5 Bft) 98,05 %
25.07.2017 15:00 17,4 C 21,7 C 69 % 1006,0 hPa 0,0 l/m 21,0 km/h (4 Bft) W-SW 0,43 h 0,229 mm 2,7 UV-I 479 W/m 11,6 C 12,6 C 32,1 km/h (5 Bft) 99,30 %
25.07.2017 16:00 18,2 C 21,7 C 62 % 1005,9 hPa 0,0 l/m 19,0 km/h (3 Bft) W-SW 0,17 h 0,355 mm 1,3 UV-I 260 W/m 10,9 C 14,2 C 29,1 km/h (5 Bft) 96,58 %
25.07.2017 17:00 18,5 C 21,7 C 61 % 1005,5 hPa 0,0 l/m 18,2 km/h (3 Bft) W-SW 0,77 h 0,229 mm 1,3 UV-I 415 W/m 10,7 C 14,7 C 30,2 km/h (5 Bft) 98,12 %
25.07.2017 18:00 17,8 C 21,7 C 61 % 1005,9 hPa 0,0 l/m 18,0 km/h (3 Bft) W-SW 0,07 h 0,330 mm 0,6 UV-I 117 W/m 10,2 C 13,8 C 28,9 km/h (5 Bft) 98,56 %
25.07.2017 19:00 16,3 C 21,7 C 70 % 1006,1 hPa 1,2 l/m 15,1 km/h (3 Bft) W 0,00 h 0,152 mm 0,0 UV-I 31 W/m 10,8 C 12,9 C 25,9 km/h (4 Bft) 96,64 %
25.07.2017 20:00 13,4 C 21,7 C 89 % 1006,6 hPa 0,2 l/m 16,6 km/h (3 Bft) SW 0,00 h 0,077 mm 0,0 UV-I 12 W/m 11,6 C 8,7 C 26,0 km/h (4 Bft) 94,41 %
25.07.2017 21:00 13,2 C 21,2 C 88 % 1006,4 hPa 0,0 l/m 18,3 km/h (3 Bft) W-SW 0,00 h 0,025 mm 0,0 UV-I 0 W/m 11,2 C 8,0 C 28,0 km/h (4 Bft) 96,77 %
25.07.2017 22:00 13,1 C 21,1 C 87 % 1006,1 hPa 0,0 l/m 19,4 km/h (3 Bft) SW 0,00 h 0,025 mm 0,0 UV-I 0 W/m 11,0 C 7,5 C 30,8 km/h (5 Bft) 97,44 %
25.07.2017 23:00 13,2 C 21,0 C 86 % 1006,0 hPa 0,0 l/m 17,6 km/h (3 Bft) W-SW 0,00 h 0,026 mm 0,0 UV-I 0 W/m 10,9 C 8,1 C 26,7 km/h (4 Bft) 97,76 %
26.07.2017 00:00 13,4 C 20,6 C 85 % 1005,8 hPa 0,0 l/m 15,2 km/h (3 Bft) W-SW 0,00 h 0,000 mm 0,0 UV-I 0 W/m 11,0 C 9,3 C 22,8 km/h (4 Bft) 95,42 %
26.07.2017 01:00 13,3 C 20,6 C 86 % 1005,6 hPa 0,4 l/m 14,7 km/h (3 Bft) SW 0,00 h 0,025 mm 0,0 UV-I 0 W/m 11,0 C 9,3 C 21,9 km/h (4 Bft) 97,77 %
26.07.2017 02:00 12,9 C 20,6 C 89 % 1005,1 hPa 0,0 l/m 11,1 km/h (2 Bft) S-SW 0,00 h 0,026 mm 0,0 UV-I 0 W/m 11,1 C 10,3 C 17,6 km/h (3 Bft) 97,34 %
26.07.2017 03:00 13,0 C 20,6 C 89 % 1004,6 hPa 0,4 l/m 14,1 km/h (3 Bft) SW 0,00 h 0,025 mm 0,0 UV-I 0 W/m 11,2 C 9,1 C 21,3 km/h (4 Bft) 98,19 %
26.07.2017 04:00 12,7 C 20,2 C 91 % 1004,1 hPa 0,0 l/m 12,1 km/h (2 Bft) SW 0,00 h 0,026 mm 0,0 UV-I 0 W/m 11,2 C 9,7 C 18,3 km/h (3 Bft) 95,15 %
26.07.2017 05:00 12,5 C 20,0 C 92 % 1003,7 hPa 0,4 l/m 10,0 km/h (2 Bft) SW 0,00 h 0,025 mm 0,0 UV-I 9 W/m 11,3 C 10,5 C 16,5 km/h (3 Bft) 98,59 %
26.07.2017 06:00 12,7 C 20,0 C 88 % 1003,2 hPa 2,2 l/m 19,1 km/h (3 Bft) SW 0,00 h 0,025 mm 0,0 UV-I 19 W/m 10,8 C 7,1 C 30,4 km/h (5 Bft) 96,28 %
26.07.2017 07:00 12,1 C 20,0 C 90 % 1002,8 hPa 1,0 l/m 17,3 km/h (3 Bft) S-SW 0,00 h 0,026 mm 0,0 UV-I 32 W/m 10,6 C 7,0 C 29,4 km/h (5 Bft) 97,98 %
26.07.2017 08:00 12,7 C 19,5 C 90 % 1003,0 hPa 0,0 l/m 18,5 km/h (3 Bft) SW 0,07 h 0,025 mm 0,7 UV-I 156 W/m 11,0 C 7,2 C 28,7 km/h (4 Bft) 94,80 %
26.07.2017 09:00 13,7 C 19,5 C 88 % 1003,3 hPa 0,0 l/m 20,4 km/h (4 Bft) SW 0,13 h 0,102 mm 1,1 UV-I 251 W/m 11,7 C 8,0 C 32,9 km/h (5 Bft) 98,13 %
26.07.2017 10:00 13,0 C 19,4 C 92 % 1003,4 hPa 3,0 l/m 18,8 km/h (3 Bft) SW 0,00 h 0,152 mm 0,6 UV-I 93 W/m 11,7 C 7,6 C 29,5 km/h (5 Bft) 97,38 %
26.07.2017 11:00 13,3 C 19,4 C 94 % 1003,7 hPa 2,6 l/m 19,3 km/h (3 Bft) SW 0,00 h 0,051 mm 1,1 UV-I 170 W/m 12,3 C 7,8 C 31,8 km/h (5 Bft) 98,38 %
26.07.2017 12:00 13,9 C 19,4 C 94 % 1004,1 hPa 2,2 l/m 20,7 km/h (4 Bft) SW 0,00 h 0,102 mm 1,6 UV-I 234 W/m 12,9 C 8,3 C 31,2 km/h (5 Bft) 94,86 %
26.07.2017 13:00 14,5 C 19,4 C 92 % 1004,6 hPa 1,4 l/m 22,3 km/h (4 Bft) SW 0,17 h 0,127 mm 2,1 UV-I 335 W/m 13,2 C 8,7 C 35,0 km/h (5 Bft) 97,56 %
26.07.2017 14:00 13,9 C 19,4 C 93 % 1005,1 hPa 2,0 l/m 21,8 km/h (4 Bft) SW 0,00 h 0,177 mm 1,2 UV-I 197 W/m 12,7 C 8,0 C 35,0 km/h (5 Bft) 97,01 %
26.07.2017 15:00 13,7 C 19,4 C 93 % 1005,3 hPa 1,4 l/m 21,5 km/h (4 Bft) SW 0,00 h 0,127 mm 1,0 UV-I 177 W/m 12,5 C 7,7 C 34,0 km/h (5 Bft) 98,67 %
26.07.2017 16:00 13,4 C 19,4 C 94 % 1005,4 hPa 0,8 l/m 22,3 km/h (4 Bft) SW 0,00 h 0,102 mm 0,6 UV-I 109 W/m 12,4 C 7,1 C 35,0 km/h (5 Bft) 95,16 %
26.07.2017 17:00 13,5 C 19,4 C 95 % 1006,0 hPa 1,0 l/m 20,0 km/h (4 Bft) SW 0,00 h 0,076 mm 0,5 UV-I 69 W/m 12,7 C 8,0 C 30,4 km/h (5 Bft) 97,30 %
26.07.2017 18:00 14,6 C 19,4 C 94 % 1006,6 hPa 0,0 l/m 18,5 km/h (3 Bft) W-SW 0,00 h 0,051 mm 0,4 UV-I 112 W/m 13,6 C 9,7 C 28,6 km/h (4 Bft) 96,17 %
26.07.2017 19:00 14,4 C 19,1 C 94 % 1007,2 hPa 0,2 l/m 15,1 km/h (3 Bft) SW 0,00 h 0,076 mm 0,0 UV-I 21 W/m 13,5 C 10,5 C 23,3 km/h (4 Bft) 97,37 %
26.07.2017 20:00 13,9 C 18,9 C 95 % 1007,8 hPa 2,2 l/m 16,1 km/h (3 Bft) SW 0,00 h 0,026 mm 0,0 UV-I 5 W/m 13,2 C 9,6 C 24,6 km/h (4 Bft) 93,62 %
26.07.2017 21:00 13,8 C 18,9 C 96 % 1008,6 hPa 0,6 l/m 18,5 km/h (3 Bft) W-SW 0,00 h 0,000 mm 0,0 UV-I 0 W/m 13,1 C 8,6 C 28,1 km/h (4 Bft) 96,93 %
26.07.2017 22:00 13,7 C 18,9 C 95 % 1009,4 hPa 0,2 l/m 15,2 km/h (3 Bft) SW 0,00 h 0,000 mm 0,0 UV-I 0 W/m 13,0 C 9,6 C 22,2 km/h (4 Bft) 95,88 %
26.07.2017 23:00 13,6 C 18,9 C 96 % 1009,8 hPa 0,8 l/m 14,1 km/h (3 Bft) W-SW 0,00 h 0,000 mm 0,0 UV-I 0 W/m 13,0 C 9,9 C 21,0 km/h (4 Bft) 97,51 %
27.07.2017 00:00 12,9 C 18,9 C 94 % 1010,2 hPa 1,0 l/m 11,8 km/h (2 Bft) W-SW 0,00 h 0,000 mm 0,0 UV-I 0 W/m 12,1 C 10,0 C 18,8 km/h (3 Bft) 93,94 %
27.07.2017 01:00 13,2 C 18,9 C 96 % 1010,1 hPa 1,4 l/m 11,3 km/h (2 Bft) W-SW 0,00 h 0,000 mm 0,0 UV-I 0 W/m 12,5 C 10,5 C 17,1 km/h (3 Bft) 97,28 %
27.07.2017 02:00 12,8 C 18,8 C 94 % 1010,4 hPa 2,0 l/m 12,0 km/h (2 Bft) W-SW 0,00 h 0,000 mm 0,0 UV-I 0 W/m 11,8 C 9,7 C 18,9 km/h (3 Bft) 95,27 %
27.07.2017 03:00 12,1 C 18,3 C 95 % 1010,5 hPa 2,2 l/m 10,8 km/h (2 Bft) SW 0,00 h 0,000 mm 0,0 UV-I 0 W/m 11,4 C 9,6 C 15,8 km/h (3 Bft) 97,28 %
27.07.2017 04:00 12,5 C 18,3 C 96 % 1010,3 hPa 0,8 l/m 12,6 km/h (3 Bft) SW 0,00 h 0,000 mm 0,0 UV-I 0 W/m 11,8 C 9,1 C 19,8 km/h (3 Bft) 94,20 %
27.07.2017 05:00 12,9 C 18,3 C 96 % 1010,4 hPa 0,8 l/m 9,7 km/h (2 Bft) SW 0,00 h 0,000 mm 0,0 UV-I 5 W/m 12,3 C 11,1 C 15,4 km/h (3 Bft) 97,24 %
27.07.2017 06:00 13,2 C 18,3 C 96 % 1010,5 hPa 0,2 l/m 9,4 km/h (2 Bft) SW 0,00 h 0,000 mm 0,0 UV-I 20 W/m 12,7 C 11,5 C 14,7 km/h (3 Bft) 96,77 %
27.07.2017 07:00 13,8 C 18,3 C 95 % 1010,9 hPa 0,0 l/m 8,6 km/h (2 Bft) W-SW 0,00 h 0,025 mm 0,0 UV-I 76 W/m 13,0 C 12,6 C 13,1 km/h (3 Bft) 97,43 %
27.07.2017 08:00 14,5 C 18,3 C 94 % 1011,1 hPa 0,0 l/m 8,3 km/h (2 Bft) SW 0,00 h 0,051 mm 0,8 UV-I 158 W/m 13,5 C 13,4 C 12,6 km/h (3 Bft) 94,04 %
27.07.2017 09:00 15,9 C 18,3 C 91 % 1011,1 hPa 0,0 l/m 7,7 km/h (2 Bft) SW 0,50 h 0,076 mm 1,8 UV-I 407 W/m 14,4 C 15,1 C 12,2 km/h (3 Bft) 97,96 %
27.07.2017 10:00 18,4 C 18,6 C 80 % 1010,9 hPa 0,0 l/m 8,5 km/h (2 Bft) W 0,77 h 0,229 mm 3,2 UV-I 637 W/m 14,9 C 17,5 C 15,0 km/h (3 Bft) 97,19 %
27.07.2017 11:00 20,2 C 18,9 C 73 % 1010,6 hPa 0,0 l/m 5,9 km/h (2 Bft) W-SW 0,97 h 0,381 mm 4,8 UV-I 844 W/m 15,2 C 19,9 C 12,8 km/h (3 Bft) 98,28 %
27.07.2017 12:00 20,4 C 18,9 C 68 % 1010,3 hPa 0,0 l/m 10,6 km/h (2 Bft) W-SW 0,20 h 0,483 mm 2,7 UV-I 384 W/m 14,3 C 19,0 C 18,8 km/h (3 Bft) 94,80 %
27.07.2017 13:00 20,0 C 19,3 C 65 % 1010,3 hPa 0,0 l/m 12,8 km/h (3 Bft) SW 0,43 h 0,279 mm 3,5 UV-I 442 W/m 13,2 C 17,9 C 22,1 km/h (4 Bft) 97,89 %
27.07.2017 14:00 19,9 C 19,4 C 68 % 1010,1 hPa 0,0 l/m 8,6 km/h (2 Bft) W 0,07 h 0,330 mm 2,6 UV-I 352 W/m 13,8 C 19,0 C 15,0 km/h (3 Bft) 97,05 %
27.07.2017 15:00 20,0 C 19,4 C 70 % 1010,1 hPa 0,0 l/m 5,1 km/h (1 Bft) W-NW 0,00 h 0,254 mm 1,6 UV-I 246 W/m 14,4 C 19,8 C 10,5 km/h (2 Bft) 97,06 %
27.07.2017 16:00 17,9 C 19,4 C 84 % 1010,2 hPa 0,0 l/m 5,4 km/h (1 Bft) S-SW 0,00 h 0,153 mm 0,9 UV-I 148 W/m 15,2 C 17,6 C 8,8 km/h (2 Bft) 94,91 %
27.07.2017 17:00 18,5 C 19,4 C 77 % 1010,2 hPa 0,0 l/m 8,3 km/h (2 Bft) W-SW 0,00 h 0,101 mm 0,5 UV-I 125 W/m 14,4 C 17,6 C 15,1 km/h (3 Bft) 98,61 %
27.07.2017 18:00 17,6 C 19,4 C 78 % 1010,3 hPa 0,0 l/m 13,1 km/h (3 Bft) W-SW 0,00 h 0,102 mm 0,0 UV-I 76 W/m 13,8 C 15,0 C 20,5 km/h (4 Bft) 96,01 %
27.07.2017 19:00 17,3 C 19,4 C 83 % 1010,0 hPa 0,0 l/m 10,0 km/h (2 Bft) W-SW 0,27 h 0,076 mm 0,0 UV-I 86 W/m 14,4 C 15,7 C 16,5 km/h (3 Bft) 97,75 %
27.07.2017 20:00 17,0 C 19,4 C 85 % 1010,3 hPa 0,0 l/m 5,6 km/h (1 Bft) W-SW 0,00 h 0,076 mm 0,0 UV-I 14 W/m 14,5 C 16,9 C 9,4 km/h (2 Bft) 95,27 %
27.07.2017 21:00 16,2 C 19,4 C 89 % 1010,4 hPa 0,0 l/m 2,4 km/h (1 Bft) S 0,00 h 0,026 mm 0,0 UV-I 0 W/m 14,4 C 16,2 C 4,5 km/h (1 Bft) 97,96 %
27.07.2017 22:00 15,5 C 19,4 C 91 % 1010,2 hPa 0,0 l/m 2,9 km/h (1 Bft) S 0,00 h 0,000 mm 0,0 UV-I 0 W/m 14,2 C 15,5 C 4,9 km/h (1 Bft) 96,89 %
27.07.2017 23:00 15,2 C 19,4 C 92 % 1010,0 hPa 0,0 l/m 1,5 km/h (1 Bft) S 0,00 h 0,000 mm 0,0 UV-I 0 W/m 14,0 C 15,2 C 3,1 km/h (1 Bft) 98,47 %
28.07.2017 00:00 14,9 C 19,4 C 94 % 1010,4 hPa 0,0 l/m 0,6 km/h (0 Bft) S 0,00 h 0,000 mm 0,0 UV-I 0 W/m 13,8 C 14,9 C 1,9 km/h (1 Bft) 94,65 %
28.07.2017 01:00 15,0 C 19,4 C 94 % 1010,5 hPa 0,0 l/m 1,8 km/h (1 Bft) S 0,00 h 0,000 mm 0,0 UV-I 0 W/m 14,0 C 15,0 C 3,4 km/h (1 Bft) 98,24 %
28.07.2017 02:00 15,2 C 18,9 C 94 % 1010,2 hPa 0,0 l/m 1,6 km/h (1 Bft) S 0,00 h 0,000 mm 0,0 UV-I 0 W/m 14,2 C 15,2 C 3,3 km/h (1 Bft) 96,93 %
28.07.2017 03:00 15,4 C 18,9 C 94 % 1010,4 hPa 0,2 l/m 4,4 km/h (1 Bft) S 0,00 h 0,000 mm 0,0 UV-I 0 W/m 14,4 C 15,2 C 7,4 km/h (2 Bft) 97,27 %
28.07.2017 04:00 15,3 C 18,9 C 93 % 1010,3 hPa 0,0 l/m 2,3 km/h (1 Bft) S-SW 0,00 h 0,000 mm 0,0 UV-I 0 W/m 14,3 C 15,2 C 4,2 km/h (1 Bft) 95,82 %
28.07.2017 05:00 15,1 C 18,9 C 95 % 1010,7 hPa 0,0 l/m 3,6 km/h (1 Bft) S-SW 0,00 h 0,000 mm 0,0 UV-I 7 W/m 14,3 C 15,1 C 6,0 km/h (2 Bft) 98,26 %
28.07.2017 06:00 15,5 C 18,9 C 94 % 1011,1 hPa 0,2 l/m 6,0 km/h (2 Bft) S 0,00 h 0,000 mm 0,0 UV-I 31 W/m 14,5 C 15,1 C 10,5 km/h (2 Bft) 97,22 %
28.07.2017 07:00 16,6 C 18,9 C 91 % 1011,4 hPa 0,0 l/m 14,8 km/h (3 Bft) SW 0,00 h 0,025 mm 0,4 UV-I 89 W/m 15,1 C 13,3 C 22,4 km/h (4 Bft) 97,75 %
28.07.2017 08:00 17,7 C 18,9 C 85 % 1011,9 hPa 0,0 l/m 16,2 km/h (3 Bft) W-SW 0,70 h 0,077 mm 1,2 UV-I 365 W/m 15,2 C 14,2 C 24,8 km/h (4 Bft) 94,34 %
28.07.2017 09:00 19,4 C 19,4 C 77 % 1012,2 hPa 0,0 l/m 17,5 km/h (3 Bft) W-SW 1,00 h 0,228 mm 2,2 UV-I 492 W/m 15,2 C 16,0 C 26,2 km/h (4 Bft) 98,81 %
28.07.2017 10:00 19,9 C 19,4 C 71 % 1012,4 hPa 0,0 l/m 11,7 km/h (2 Bft) W-SW 0,30 h 0,356 mm 2,4 UV-I 366 W/m 14,6 C 18,1 C 18,8 km/h (3 Bft) 96,15 %
28.07.2017 11:00 20,9 C 19,4 C 67 % 1012,4 hPa 0,0 l/m 13,5 km/h (3 Bft) SW 0,53 h 0,254 mm 4,4 UV-I 605 W/m 14,7 C 18,8 C 21,7 km/h (4 Bft) 95,30 %
28.07.2017 12:00 21,5 C 19,7 C 63 % 1012,5 hPa 0,0 l/m 17,4 km/h (3 Bft) W-SW 0,40 h 0,406 mm 4,0 UV-I 477 W/m 14,2 C 18,7 C 27,4 km/h (4 Bft) 96,21 %
28.07.2017 13:00 21,9 C 20,0 C 62 % 1012,8 hPa 0,0 l/m 16,8 km/h (3 Bft) W-SW 0,60 h 0,407 mm 4,1 UV-I 522 W/m 14,2 C 19,2 C 26,9 km/h (4 Bft) 98,14 %
28.07.2017 14:00 19,7 C 20,0 C 73 % 1013,5 hPa 0,0 l/m 14,2 km/h (3 Bft) W-SW 0,00 h 0,381 mm 2,2 UV-I 279 W/m 14,7 C 17,1 C 22,8 km/h (4 Bft) 96,89 %
28.07.2017 15:00 19,8 C 20,0 C 71 % 1013,9 hPa 0,0 l/m 17,8 km/h (3 Bft) SW 0,10 h 0,228 mm 2,3 UV-I 324 W/m 14,4 C 16,4 C 26,9 km/h (4 Bft) 96,51 %
28.07.2017 16:00 19,9 C 20,0 C 71 % 1014,3 hPa 0,0 l/m 17,4 km/h (3 Bft) SW 0,00 h 0,254 mm 1,6 UV-I 273 W/m 14,5 C 16,7 C 26,2 km/h (4 Bft) 96,85 %
28.07.2017 17:00 20,0 C 20,0 C 70 % 1014,5 hPa 0,0 l/m 17,6 km/h (3 Bft) SW 0,33 h 0,229 mm 1,3 UV-I 279 W/m 14,4 C 16,7 C 26,9 km/h (4 Bft) 97,40 %
28.07.2017 18:00 19,7 C 20,0 C 70 % 1014,5 hPa 0,0 l/m 18,1 km/h (3 Bft) SW 0,10 h 0,228 mm 0,7 UV-I 169 W/m 14,1 C 16,2 C 27,4 km/h (4 Bft) 98,23 %
28.07.2017 19:00 19,6 C 20,0 C 69 % 1014,7 hPa 0,0 l/m 15,3 km/h (3 Bft) SW 0,87 h 0,178 mm 0,0 UV-I 127 W/m 13,7 C 16,7 C 24,1 km/h (4 Bft) 95,82 %
28.07.2017 20:00 18,3 C 20,0 C 74 % 1015,3 hPa 0,0 l/m 8,5 km/h (2 Bft) SW 0,20 h 0,127 mm 0,0 UV-I 20 W/m 13,5 C 17,4 C 13,5 km/h (3 Bft) 97,40 %
28.07.2017 21:00 17,5 C 20,0 C 78 % 1016,1 hPa 0,0 l/m 6,0 km/h (2 Bft) SW 0,00 h 0,051 mm 0,0 UV-I 0 W/m 13,5 C 17,3 C 8,8 km/h (2 Bft) 97,65 %
28.07.2017 22:00 16,2 C 20,0 C 82 % 1016,5 hPa 0,0 l/m 4,6 km/h (1 Bft) SW 0,00 h 0,025 mm 0,0 UV-I 0 W/m 13,1 C 16,2 C 6,2 km/h (2 Bft) 98,29 %
28.07.2017 23:00 14,6 C 20,0 C 87 % 1016,8 hPa 0,0 l/m 2,4 km/h (1 Bft) SW 0,00 h 0,026 mm 0,0 UV-I 0 W/m 12,4 C 14,6 C 4,0 km/h (1 Bft) 96,37 %
29.07.2017 00:00 13,9 C 20,0 C 90 % 1017,0 hPa 0,0 l/m 2,6 km/h (1 Bft) S-SW 0,00 h 0,000 mm 0,0 UV-I 0 W/m 12,2 C 13,9 C 4,6 km/h (1 Bft) 97,33 %
29.07.2017 01:00 13,3 C 19,6 C 91 % 1017,1 hPa 0,0 l/m 1,0 km/h (0 Bft) S-SW 0,00 h 0,000 mm 0,0 UV-I 0 W/m 11,9 C 13,3 C 1,8 km/h (1 Bft) 97,28 %
29.07.2017 02:00 12,7 C 19,4 C 93 % 1016,8 hPa 0,0 l/m 0,5 km/h (0 Bft) S-SW 0,00 h 0,000 mm 0,0 UV-I 0 W/m 11,6 C 12,7 C 1,4 km/h (1 Bft) 97,72 %
29.07.2017 03:00 13,1 C 19,4 C 93 % 1016,6 hPa 0,0 l/m 0,7 km/h (0 Bft) S-SW 0,00 h 0,000 mm 0,0 UV-I 0 W/m 11,9 C 13,1 C 1,8 km/h (1 Bft) 95,92 %
29.07.2017 04:00 12,8 C 19,4 C 93 % 1016,5 hPa 0,0 l/m 0,7 km/h (0 Bft) S-SW 0,00 h 0,000 mm 0,0 UV-I 0 W/m 11,7 C 12,8 C 1,9 km/h (1 Bft) 97,71 %
29.07.2017 05:00 12,9 C 19,4 C 94 % 1016,7 hPa 0,0 l/m 1,1 km/h (1 Bft) S-SW 0,13 h 0,000 mm 0,0 UV-I 11 W/m 11,8 C 12,9 C 1,9 km/h (1 Bft) 97,80 %
29.07.2017 06:00 13,0 C 19,4 C 94 % 1016,8 hPa 0,0 l/m 1,0 km/h (0 Bft) S-SW 0,00 h 0,000 mm 0,0 UV-I 34 W/m 12,0 C 13,0 C 2,1 km/h (1 Bft) 96,63 %
29.07.2017 07:00 14,5 C 19,4 C 89 % 1016,9 hPa 0,0 l/m 0,4 km/h (0 Bft) S-SW 0,77 h 0,025 mm 0,6 UV-I 250 W/m 12,8 C 14,5 C 1,2 km/h (1 Bft) 96,49 %
29.07.2017 08:00 17,2 C 19,4 C 79 % 1017,2 hPa 0,0 l/m 3,2 km/h (1 Bft) O-NO 0,87 h 0,127 mm 1,2 UV-I 346 W/m 13,5 C 17,2 C 5,6 km/h (1 Bft) 97,43 %
29.07.2017 09:00 18,9 C 19,6 C 73 % 1017,3 hPa 0,0 l/m 3,8 km/h (1 Bft) NO 1,00 h 0,204 mm 2,6 UV-I 556 W/m 14,1 C 18,9 C 7,3 km/h (2 Bft) 96,74 %
29.07.2017 10:00 20,9 C 20,0 C 67 % 1017,4 hPa 0,0 l/m 3,8 km/h (1 Bft) NO 1,00 h 0,330 mm 4,1 UV-I 703 W/m 14,6 C 20,9 C 7,4 km/h (2 Bft) 94,12 %
29.07.2017 11:00 22,7 C 20,2 C 61 % 1017,2 hPa 0,0 l/m 3,5 km/h (1 Bft) NO 1,00 h 0,432 mm 5,4 UV-I 794 W/m 14,8 C 22,6 C 7,4 km/h (2 Bft) 95,65 %
29.07.2017 12:00 24,1 C 20,6 C 56 % 1016,6 hPa 0,0 l/m 4,2 km/h (1 Bft) O 1,00 h 0,482 mm 6,1 UV-I 855 W/m 14,8 C 24,0 C 9,0 km/h (2 Bft) 96,93 %
29.07.2017 13:00 25,2 C 21,0 C 53 % 1016,2 hPa 0,0 l/m 4,2 km/h (1 Bft) W-SW 1,00 h 0,534 mm 6,3 UV-I 824 W/m 14,8 C 25,1 C 8,6 km/h (2 Bft) 95,96 %
29.07.2017 14:00 25,9 C 21,3 C 51 % 1015,8 hPa 0,0 l/m 3,8 km/h (1 Bft) W 0,67 h 0,558 mm 5,0 UV-I 671 W/m 15,0 C 25,8 C 8,6 km/h (2 Bft) 95,55 %
29.07.2017 15:00 26,2 C 21,7 C 52 % 1015,4 hPa 0,0 l/m 2,7 km/h (1 Bft) NW 0,57 h 0,483 mm 3,5 UV-I 516 W/m 15,5 C 26,2 C 6,1 km/h (2 Bft) 96,90 %
29.07.2017 16:00 26,5 C 21,8 C 52 % 1015,0 hPa 0,0 l/m 3,0 km/h (1 Bft) NO 0,50 h 0,356 mm 2,5 UV-I 433 W/m 15,9 C 26,5 C 5,8 km/h (2 Bft) 98,55 %
29.07.2017 17:00 26,2 C 22,2 C 56 % 1014,7 hPa 0,0 l/m 3,4 km/h (1 Bft) N-NO 0,50 h 0,279 mm 1,2 UV-I 279 W/m 16,6 C 26,1 C 7,3 km/h (2 Bft) 93,67 %
29.07.2017 18:00 25,4 C 22,2 C 60 % 1014,3 hPa 0,0 l/m 4,1 km/h (1 Bft) N-NO 0,50 h 0,203 mm 0,6 UV-I 189 W/m 17,1 C 25,3 C 7,3 km/h (2 Bft) 96,52 %
29.07.2017 19:00 24,9 C 22,2 C 62 % 1014,1 hPa 0,0 l/m 2,4 km/h (1 Bft) N-NO 0,67 h 0,153 mm 0,0 UV-I 128 W/m 17,2 C 24,9 C 4,9 km/h (1 Bft) 96,81 %
29.07.2017 20:00 22,7 C 22,2 C 70 % 1013,9 hPa 0,0 l/m 1,5 km/h (1 Bft) N-NO 0,03 h 0,101 mm 0,0 UV-I 12 W/m 16,8 C 22,7 C 2,9 km/h (1 Bft) 96,91 %
29.07.2017 21:00 20,4 C 22,2 C 78 % 1014,1 hPa 0,0 l/m 0,4 km/h (0 Bft) N-NO 0,00 h 0,026 mm 0,0 UV-I 0 W/m 16,5 C 20,4 C 0,9 km/h (0 Bft) 94,99 %
29.07.2017 22:00 18,7 C 21,8 C 84 % 1014,0 hPa 0,0 l/m 0,9 km/h (0 Bft) N-NO 0,00 h 0,000 mm 0,0 UV-I 0 W/m 16,0 C 18,7 C 2,5 km/h (1 Bft) 95,84 %
29.07.2017 23:00 17,9 C 21,7 C 87 % 1013,7 hPa 0,0 l/m 1,4 km/h (1 Bft) O-SO 0,00 h 0,000 mm 0,0 UV-I 0 W/m 15,6 C 17,9 C 2,5 km/h (1 Bft) 96,58 %
30.07.2017 00:00 17,1 C 21,7 C 89 % 1013,6 hPa 0,0 l/m 1,5 km/h (1 Bft) O-SO 0,00 h 0,000 mm 0,0 UV-I 0 W/m 15,3 C 17,1 C 2,3 km/h (1 Bft) 95,15 %
30.07.2017 01:00 16,4 C 21,7 C 92 % 1013,4 hPa 0,0 l/m 1,4 km/h (1 Bft) O-SO 0,00 h 0,000 mm 0,0 UV-I 0 W/m 15,0 C 16,4 C 2,5 km/h (1 Bft) 94,92 %
30.07.2017 02:00 15,9 C 21,7 C 92 % 1013,3 hPa 0,0 l/m 1,0 km/h (0 Bft) S-SO 0,00 h 0,000 mm 0,0 UV-I 0 W/m 14,7 C 15,9 C 2,2 km/h (1 Bft) 98,18 %
30.07.2017 03:00 15,6 C 21,7 C 93 % 1013,0 hPa 0,0 l/m 0,8 km/h (0 Bft) S-SO 0,00 h 0,000 mm 0,0 UV-I 0 W/m 14,4 C 15,6 C 2,0 km/h (1 Bft) 97,21 %
30.07.2017 04:00 15,2 C 21,1 C 94 % 1012,9 hPa 0,0 l/m 1,2 km/h (1 Bft) S 0,00 h 0,000 mm 0,0 UV-I 0 W/m 14,2 C 15,2 C 2,6 km/h (1 Bft) 97,96 %
30.07.2017 05:00 15,0 C 21,1 C 94 % 1012,7 hPa 0,0 l/m 0,5 km/h (0 Bft) S 0,17 h 0,000 mm 0,0 UV-I 14 W/m 14,1 C 15,0 C 1,2 km/h (1 Bft) 95,89 %
30.07.2017 06:00 15,2 C 21,1 C 95 % 1012,5 hPa 0,0 l/m 0,0 km/h (0 Bft) N 0,63 h 0,000 mm 0,0 UV-I 77 W/m 14,3 C 15,2 C 0,2 km/h (0 Bft) 97,66 %
30.07.2017 07:00 17,7 C 21,1 C 89 % 1012,5 hPa 0,0 l/m 0,4 km/h (0 Bft) S 0,93 h 0,051 mm 0,6 UV-I 225 W/m 15,9 C 17,7 C 1,4 km/h (1 Bft) 96,27 %
30.07.2017 08:00 19,6 C 21,2 C 83 % 1012,6 hPa 0,0 l/m 1,6 km/h (1 Bft) NO 0,73 h 0,127 mm 1,2 UV-I 321 W/m 16,7 C 19,6 C 3,8 km/h (1 Bft) 96,19 %
30.07.2017 09:00 21,1 C 21,7 C 80 % 1012,6 hPa 0,0 l/m 1,9 km/h (1 Bft) N-NO 1,00 h 0,203 mm 2,5 UV-I 537 W/m 17,5 C 21,1 C 4,2 km/h (1 Bft) 96,70 %
30.07.2017 10:00 23,4 C 21,7 C 73 % 1012,8 hPa 0,0 l/m 2,6 km/h (1 Bft) W-SW 1,00 h 0,330 mm 4,0 UV-I 696 W/m 18,3 C 23,4 C 5,6 km/h (1 Bft) 96,53 %
30.07.2017 11:00 25,3 C 22,1 C 67 % 1012,7 hPa 0,0 l/m 3,7 km/h (1 Bft) W-NW 1,00 h 0,432 mm 5,3 UV-I 787 W/m 18,7 C 25,3 C 7,2 km/h (2 Bft) 95,95 %
30.07.2017 12:00 27,3 C 22,5 C 62 % 1012,3 hPa 0,0 l/m 5,5 km/h (1 Bft) W-SW 1,00 h 0,508 mm 6,0 UV-I 842 W/m 19,4 C 27,2 C 11,3 km/h (2 Bft) 94,75 %
30.07.2017 13:00 28,9 C 22,9 C 57 % 1011,8 hPa 0,0 l/m 5,9 km/h (2 Bft) W-SW 1,00 h 0,584 mm 6,2 UV-I 851 W/m 19,5 C 28,8 C 11,5 km/h (2 Bft) 97,89 %
30.07.2017 14:00 29,9 C 23,3 C 46 % 1011,4 hPa 0,0 l/m 4,4 km/h (1 Bft) NW 1,00 h 0,584 mm 5,7 UV-I 825 W/m 17,0 C 29,9 C 10,0 km/h (2 Bft) 97,98 %
30.07.2017 15:00 30,6 C 23,8 C 44 % 1011,3 hPa 0,0 l/m 5,5 km/h (1 Bft) W-SW 1,00 h 0,585 mm 4,6 UV-I 791 W/m 16,7 C 30,5 C 10,8 km/h (2 Bft) 95,61 %
30.07.2017 16:00 30,6 C 23,9 C 42 % 1011,1 hPa 0,0 l/m 5,0 km/h (1 Bft) W-SW 1,00 h 0,584 mm 3,1 UV-I 655 W/m 16,4 C 30,6 C 9,2 km/h (2 Bft) 97,26 %
30.07.2017 17:00 30,8 C 24,4 C 43 % 1010,8 hPa 0,0 l/m 4,3 km/h (1 Bft) W 1,00 h 0,482 mm 1,8 UV-I 484 W/m 16,6 C 30,8 C 8,6 km/h (2 Bft) 95,86 %
30.07.2017 18:00 29,8 C 24,4 C 45 % 1010,8 hPa 0,0 l/m 1,8 km/h (1 Bft) SW 0,33 h 0,381 mm 0,7 UV-I 192 W/m 16,5 C 29,8 C 4,0 km/h (1 Bft) 95,75 %
30.07.2017 19:00 29,2 C 24,4 C 51 % 1010,7 hPa 0,0 l/m 3,7 km/h (1 Bft) NO 0,83 h 0,153 mm 0,0 UV-I 155 W/m 17,9 C 29,2 C 5,5 km/h (1 Bft) 98,09 %
30.07.2017 20:00 26,4 C 24,4 C 62 % 1011,1 hPa 0,0 l/m 1,9 km/h (1 Bft) O 0,00 h 0,152 mm 0,0 UV-I 11 W/m 18,3 C 26,4 C 3,6 km/h (1 Bft) 95,07 %
30.07.2017 21:00 23,4 C 24,4 C 74 % 1011,8 hPa 0,0 l/m 1,1 km/h (0 Bft) O 0,00 h 0,026 mm 0,0 UV-I 0 W/m 18,6 C 23,4 C 1,9 km/h (1 Bft) 95,26 %
30.07.2017 22:00 21,9 C 24,1 C 81 % 1012,3 hPa 0,0 l/m 1,4 km/h (1 Bft) SO 0,00 h 0,025 mm 0,0 UV-I 0 W/m 18,4 C 21,9 C 2,7 km/h (1 Bft) 96,49 %
30.07.2017 23:00 21,9 C 23,9 C 77 % 1013,1 hPa 0,0 l/m 3,9 km/h (1 Bft) S-SW 0,00 h 0,000 mm 0,0 UV-I 0 W/m 17,7 C 21,7 C 6,7 km/h (2 Bft) 98,17 %
Min-Datum _ 26.07.17 27.07.17 30.07.17 26.07.17 - 24.07.17 - - - - - 25.07.17 26.07.17 24.07.17 30.07.17
_ Min-Zeit 07:10 02:50 18:10 07:06 - 01:50 - - - - - 18:14 07:44 01:50 00:02
Minimum _ 11,9 C 18,3 C 39 % 1002,6 hPa - 0,0 km/h (0 Bft) - - - - - 9,7 C 4,1 C 0,0 km/h (0 Bft) 9,52 %
Max-Datum _ 30.07.17 24.07.17 24.07.17 29.07.17 24.07.17 26.07.17 - 29.07.17 30.07.17 28.07.17 27.07.17 30.07.17 30.07.17 25.07.17 24.07.17
_ Max-Zeit 17:08 00:00 08:42 10:36 11:10 12:24 - 19:40 15:02 13:00 12:04 13:08 17:08 14:50 01:32
Maximum _ 31,0 C 25,6 C 97 % 1017,5 hPa 11,6 l/m 35,0 km/h
SW (5 Bft)
- 0,08 h 0,585 mm 7,1 UV-I 1132 W/m 20,6 C 31,0 C 53,1 km/h
W-SW (7 Bft)
100,00 %
Durchschnitt _ 17,3 C 21,1 C 82 % 1010,3 hPa #76,6 l/m 9,0 km/h (2 Bft) W-SW #34:12 h #20,931 mm 2,2 UV-I 263 W/m 13,9 C 15,5 C 14,6 km/h (3 Bft) 96,77 %